Time;durP1;ratioP1;P1;durP2;ratioP2;P2;SDS_P1;SDS_P2;PMS_P1;PMS_P2;Temp;Humidity;BMP_temperature;BMP_pressure;BME280_temperature;BME280_humidity;BME280_pressure;Samples;Min_cycle;Max_cycle;Signal;HPM_P1;HPM_P2
2022/05/02 00:00:32;;;;;;;;;27.33;26.00;;;;;13.25;47.31;101378.06;5004292;28;47014;-67
2022/05/02 00:02:57;;;;;;;;;25.67;25.33;;;;;13.98;47.31;101492.06;5016834;28;45424;-66
2022/05/02 00:05:23;;;;;;;;;26.67;21.67;;;;;13.99;47.47;101492.91;5016804;28;45822;-66
2022/05/02 00:07:49;;;;;;;;;26.33;21.00;;;;;14.01;47.41;101485.56;5016866;28;45452;-65
2022/05/02 00:10:14;;;;;;;;;30.33;26.33;;;;;13.93;47.38;101470.28;4998670;28;46359;-67
2022/05/02 00:12:40;;;;;;;;;18.33;18.00;;;;;12.76;47.25;101273.22;4996977;28;45199;-65
2022/05/02 00:15:07;;;;;;;;;25.67;23.67;;;;;13.91;47.51;101476.78;4996927;28;45274;-66
2022/05/02 00:20:17;;;;;;;;;17.00;17.00;;;;;13.82;48.01;101470.50;4997026;28;45769;-66
2022/05/02 00:22:44;;;;;;;;;23.00;22.00;;;;;13.45;48.32;101425.06;4996721;28;45436;-66
2022/05/02 00:25:12;;;;;;;;;30.33;25.33;;;;;13.21;48.39;101390.81;4997451;28;45266;-66
2022/05/02 00:27:38;;;;;;;;;26.67;20.33;;;;;13.58;48.00;101449.59;5015425;28;45480;-65
2022/05/02 00:30:05;;;;;;;;;25.33;24.67;;;;;13.64;48.63;101462.41;5016465;28;46941;-67
2022/05/02 00:32:31;;;;;;;;;22.00;21.00;;;;;13.55;48.31;101457.91;5016127;28;45300;-66
2022/05/02 00:34:56;;;;;;;;;26.33;25.67;;;;;13.48;48.68;101456.00;5016327;28;45196;-66
2022/05/02 00:37:21;;;;;;;;;20.67;20.67;;;;;13.42;48.44;101449.41;5016857;28;45555;-67
2022/05/02 00:39:47;;;;;;;;;26.67;19.00;;;;;13.48;49.05;101459.50;5016497;28;46223;-66
2022/05/02 00:42:12;;;;;;;;;24.00;22.67;;;;;13.40;48.45;101457.53;5016310;28;45384;-67
2022/05/02 00:44:44;;;;;;;;;17.67;15.67;;;;;13.42;48.59;101457.41;5016648;28;45302;-65
2022/05/02 00:47:10;;;;;;;;;26.00;22.00;;;;;13.51;48.48;101453.88;5015195;28;45342;-66
2022/05/02 00:49:37;;;;;;;;;23.67;22.67;;;;;13.49;48.76;101455.00;5015905;28;46359;-65
2022/05/02 00:52:04;;;;;;;;;23.33;21.00;;;;;13.09;48.59;101400.81;5015737;28;45503;-66
2022/05/02 00:54:30;;;;;;;;;20.00;20.00;;;;;13.34;49.32;101444.78;5016223;28;45250;-66
2022/05/02 00:56:55;;;;;;;;;26.00;22.67;;;;;13.23;49.19;101414.75;5014979;28;45350;-66
2022/05/02 00:59:23;;;;;;;;;24.00;19.67;;;;;13.32;48.71;101424.53;4998324;28;45776;-66
2022/05/02 01:01:48;;;;;;;;;20.67;20.67;;;;;13.19;49.22;101406.16;5016173;28;45531;-67
2022/05/02 01:04:13;;;;;;;;;24.33;20.00;;;;;13.23;49.10;101414.75;5014899;28;45539;-66
2022/05/02 01:09:23;;;;;;;;;24.67;22.00;;;;;13.19;49.23;101419.50;5016117;28;45889;-65
2022/05/02 01:11:48;;;;;;;;;23.00;23.00;;;;;13.28;49.12;101425.81;5015932;28;45311;-66
2022/05/02 01:14:13;;;;;;;;;18.33;15.67;;;;;12.84;49.13;101358.75;5016097;28;45388;-66
2022/05/02 01:16:39;;;;;;;;;22.67;20.33;;;;;12.89;49.41;101345.81;4998336;28;45535;-66
2022/05/02 01:19:04;;;;;;;;;25.67;23.67;;;;;12.70;49.06;101321.81;4998052;28;48280;-66
2022/05/02 01:21:29;;;;;;;;;22.67;20.67;;;;;13.28;49.55;101417.81;5014080;28;45398;-66
2022/05/02 01:24:00;;;;;;;;;23.00;19.67;;;;;13.06;50.06;101414.47;4999696;28;45313;-68
2022/05/02 01:26:26;;;;;;;;;24.33;22.00;;;;;13.07;50.30;101413.47;4982134;28;45528;-66
2022/05/02 01:28:56;;;;;;;;;21.67;21.67;;;;;13.03;49.85;101401.41;4999508;28;45771;-66
2022/05/02 01:31:21;;;;;;;;;24.67;24.33;;;;;13.04;49.70;101405.75;4999651;28;45323;-67
2022/05/02 01:33:48;;;;;;;;;20.33;18.00;;;;;13.04;50.00;101412.94;4997995;28;45320;-67
2022/05/02 01:36:15;;;;;;;;;21.00;19.67;;;;;13.02;50.14;101405.06;5005730;28;45222;-66
2022/05/02 01:38:41;;;;;;;;;23.33;20.67;;;;;11.77;50.03;101206.00;4981557;28;46816;-66
2022/05/02 01:41:07;;;;;;;;;25.00;23.67;;;;;12.98;49.91;101405.47;4999382;28;45399;-66
2022/05/02 01:43:33;;;;;;;;;16.33;15.33;;;;;13.08;49.57;101420.50;4981585;28;45475;-67
2022/05/02 01:46:00;;;;;;;;;22.67;22.00;;;;;12.81;49.91;101369.69;4999462;28;45473;-66
2022/05/02 01:48:26;;;;;;;;;21.00;21.00;;;;;12.55;49.57;101336.59;4981535;28;48134;-65
2022/05/02 01:50:52;;;;;;;;;24.00;23.67;;;;;13.06;49.40;101417.13;5015551;28;45692;-65
2022/05/02 01:53:17;;;;;;;;;29.33;27.00;;;;;13.01;49.90;101426.53;5020553;28;45424;-66
2022/05/02 01:55:43;;;;;;;;;22.33;21.00;;;;;12.92;50.00;101404.22;5022252;28;45307;-65
2022/05/02 01:58:08;;;;;;;;;24.00;24.00;;;;;12.98;49.74;101410.81;5019097;28;45717;-65
2022/05/02 02:00:34;;;;;;;;;29.00;25.67;;;;;12.98;49.59;101411.66;5018518;28;45455;-66
2022/05/02 02:02:59;;;;;;;;;19.33;18.67;;;;;12.85;50.48;101416.47;5018867;28;45470;-67
2022/05/02 02:08:09;;;;;;;;;27.00;24.00;;;;;12.77;49.98;101393.13;5018521;28;45413;-66
2022/05/02 02:10:34;;;;;;;;;24.00;23.00;;;;;12.82;50.06;101387.41;5018664;28;45417;-67
2022/05/02 02:12:59;;;;;;;;;28.00;24.00;;;;;13.06;49.69;101417.13;5018905;28;45310;-66
2022/05/02 02:15:25;;;;;;;;;27.67;23.00;;;;;12.98;49.92;101397.47;5017606;28;46746;-65
2022/05/02 02:17:50;;;;;;;;;20.00;20.00;;;;;13.14;49.22;101415.56;5017445;28;45614;-66
2022/05/02 02:20:16;;;;;;;;;23.33;23.33;;;;;13.15;49.35;101409.22;5018257;28;45441;-66
2022/05/02 02:22:41;;;;;;;;;25.00;23.67;;;;;13.02;49.29;101391.72;5009034;28;45295;-66
2022/05/02 02:25:07;;;;;;;;;24.33;23.00;;;;;12.89;49.94;101382.31;4997294;28;45520;-67
2022/05/02 02:27:33;;;;;;;;;30.00;26.33;;;;;12.80;49.53;101376.00;4998335;28;45857;-66
2022/05/02 02:29:59;;;;;;;;;29.00;29.00;;;;;13.02;50.24;101410.41;4998418;28;45453;-65
2022/05/02 02:32:25;;;;;;;;;22.33;22.33;;;;;13.02;49.89;101407.72;5014408;28;45267;-66
2022/05/02 02:34:51;;;;;;;;;26.33;26.00;;;;;12.81;49.84;101361.66;5018669;28;45339;-65
2022/05/02 02:37:16;;;;;;;;;28.00;25.00;;;;;13.04;49.83;101404.91;5017438;28;46500;-66
2022/05/02 02:39:45;;;;;;;;;31.00;27.33;;;;;13.01;49.88;101392.69;5018326;28;45345;-67
2022/05/02 02:42:11;;;;;;;;;29.00;27.00;;;;;12.99;49.57;101405.31;5000274;28;45351;-67
2022/05/02 02:44:37;;;;;;;;;31.00;29.33;;;;;12.67;49.70;101335.47;5018367;28;45283;-64
2022/05/02 02:47:03;;;;;;;;;23.00;23.00;;;;;12.97;49.72;101398.44;5016633;28;48024;-65
2022/05/02 02:49:28;;;;;;;;;28.67;27.00;;;;;12.99;49.50;101405.31;5000135;28;47139;-67
2022/05/02 02:51:54;;;;;;;;;32.33;27.33;;;;;12.89;49.33;101383.16;5013717;28;45271;-66
2022/05/02 02:54:20;;;;;;;;;31.67;29.67;;;;;12.70;50.13;101361.84;5018522;28;45288;-66
2022/05/02 02:56:45;;;;;;;;;31.00;29.33;;;;;12.86;50.32;101396.81;5018283;28;45731;-68
2022/05/02 02:59:11;;;;;;;;;31.00;28.33;;;;;12.91;49.45;101389.19;5000177;28;45530;-66
2022/05/02 03:01:37;;;;;;;;;30.00;28.33;;;;;12.79;49.58;101367.16;5017803;28;45583;-65
2022/05/02 03:06:46;;;;;;;;;26.67;24.33;;;;;12.97;49.82;101391.28;5010035;28;45794;-67
2022/05/02 03:09:11;;;;;;;;;31.33;26.33;;;;;12.87;49.62;101378.97;4998434;28;45468;-66
2022/05/02 03:11:37;;;;;;;;;30.33;28.67;;;;;12.88;49.86;101381.47;5010611;28;45652;-66
2022/05/02 03:14:02;;;;;;;;;30.00;28.00;;;;;12.67;50.07;101364.81;5017993;28;45434;-66
2022/05/02 03:16:28;;;;;;;;;31.67;29.00;;;;;12.85;49.42;101375.59;5017755;28;46806;-65
2022/05/02 03:18:53;;;;;;;;;30.33;30.00;;;;;12.86;50.01;101369.28;5017852;28;45302;-66
2022/05/02 03:21:18;;;;;;;;;39.33;30.00;;;;;12.76;49.46;101361.25;5017063;28;45215;-66
2022/05/02 03:23:44;;;;;;;;;30.00;27.00;;;;;12.80;50.06;101368.84;5017536;28;45217;-65
2022/05/02 03:26:09;;;;;;;;;38.67;33.33;;;;;12.68;49.40;101342.47;4999752;28;46421;-67
2022/05/02 03:28:34;;;;;;;;;28.67;27.00;;;;;12.70;50.07;101357.34;5017411;28;45252;-67
2022/05/02 03:31:00;;;;;;;;;28.67;25.33;;;;;12.78;50.05;101372.63;5017094;28;45246;-66
2022/05/02 03:33:25;;;;;;;;;28.00;27.33;;;;;12.77;50.26;101368.28;5017567;28;45143;-67
2022/05/02 03:35:50;;;;;;;;;35.00;31.67;;;;;12.79;50.22;101367.16;5014987;28;46145;-66
2022/05/02 03:38:16;;;;;;;;;32.33;30.00;;;;;12.82;50.15;101373.22;4979549;28;45431;-67
2022/05/02 03:40:41;;;;;;;;;20.67;18.33;;;;;12.87;50.24;101368.28;4997610;28;45457;-66
2022/05/02 03:43:06;;;;;;;;;27.33;27.33;;;;;12.78;49.63;101343.28;4997350;28;45497;-69
2022/05/02 03:45:32;;;;;;;;;36.00;31.33;;;;;12.80;50.06;101368.84;4997496;28;46197;-65
2022/05/02 03:47:59;;;;;;;;;34.33;30.00;;;;;12.74;49.95;101368.56;4997697;28;45362;-64
2022/05/02 03:50:24;;;;;;;;;28.67;27.00;;;;;12.59;50.22;101353.97;4979743;28;45314;-66
2022/05/02 03:52:50;;;;;;;;;25.67;20.67;;;;;12.51;50.32;101359.19;4998223;28;45424;-66
2022/05/02 03:55:15;;;;;;;;;31.00;29.00;;;;;12.39;50.92;101367.31;4998016;28;46598;-67
2022/05/02 03:57:40;;;;;;;;;30.00;24.33;;;;;11.72;50.67;101237.53;4996393;28;45512;-66
2022/05/02 04:00:07;;;;;;;;;27.00;24.67;;;;;12.39;50.85;101359.34;5000383;28;45472;-66
2022/05/02 04:02:33;;;;;;;;;27.33;27.33;;;;;12.44;50.66;101365.09;5016646;28;45307;-65
2022/05/02 04:04:58;;;;;;;;;26.00;26.00;;;;;12.47;50.99;101371.97;4998320;28;45613;-69
2022/05/02 04:07:23;;;;;;;;;30.33;29.00;;;;;12.47;51.08;101371.97;4996929;28;45406;-65
2022/05/02 04:09:49;;;;;;;;;31.67;28.67;;;;;12.37;51.57;101371.97;4979065;28;45276;-66
2022/05/02 04:12:14;;;;;;;;;27.00;24.33;;;;;12.33;50.83;101359.91;4997335;28;45338;-66
2022/05/02 04:14:39;;;;;;;;;29.67;27.67;;;;;11.86;51.37;101285.13;4996613;28;47260;-66
2022/05/02 04:17:05;;;;;;;;;34.00;30.00;;;;;12.26;51.18;101341.94;5007233;28;45296;-65
2022/05/02 04:19:30;;;;;;;;;30.00;29.00;;;;;12.37;50.95;101363.13;5016929;28;45969;-66
2022/05/02 04:21:56;;;;;;;;;33.67;31.00;;;;;12.36;50.97;101375.63;5016721;28;45621;-66
2022/05/02 04:24:21;;;;;;;;;31.33;29.33;;;;;12.33;51.15;101357.22;5016580;28;45624;-66
2022/05/02 04:26:46;;;;;;;;;26.67;26.00;;;;;12.30;51.07;101349.53;5016930;28;45293;-64
2022/05/02 04:29:12;;;;;;;;;32.67;30.00;;;;;12.35;51.59;101373.94;5016468;28;45468;-66
2022/05/02 04:31:37;;;;;;;;;32.33;31.00;;;;;11.63;51.61;101265.03;5014503;28;45413;-66
2022/05/02 04:34:02;;;;;;;;;33.33;30.00;;;;;12.27;51.18;101368.47;5016353;28;47585;-65
2022/05/02 04:36:28;;;;;;;;;31.00;29.00;;;;;12.25;51.39;101366.94;5016360;28;45449;-65
2022/05/02 04:38:53;;;;;;;;;29.00;27.33;;;;;12.14;52.24;101370.56;5016744;28;45365;-67
2022/05/02 04:41:18;;;;;;;;;32.33;30.33;;;;;12.08;52.31;101373.78;5016187;28;45334;-67
2022/05/02 04:43:44;;;;;;;;;30.67;30.00;;;;;12.14;51.71;101375.88;5015761;28;47506;-65
2022/05/02 04:46:09;;;;;;;;;28.67;27.33;;;;;12.10;51.72;101363.81;5007552;28;45490;-66
2022/05/02 04:48:35;;;;;;;;;36.33;31.67;;;;;12.22;51.47;101367.22;4996584;28;45323;-66
2022/05/02 04:51:00;;;;;;;;;34.67;30.00;;;;;12.28;51.70;101370.16;4996603;28;45388;-65
2022/05/02 04:53:25;;;;;;;;;32.00;29.67;;;;;12.34;51.13;101376.75;4996248;28;46282;-65
2022/05/02 04:55:51;;;;;;;;;32.67;29.67;;;;;12.41;51.68;101373.41;4998592;28;45516;-64
2022/05/02 04:58:17;;;;;;;;;35.67;31.00;;;;;12.48;50.73;101371.00;4982184;28;45330;-65
2022/05/02 05:00:43;;;;;;;;;38.67;32.67;;;;;12.54;50.97;101372.25;5002124;28;45508;-66
2022/05/02 05:03:08;;;;;;;;;35.67;31.67;;;;;12.54;50.98;101366.91;4997701;28;46922;-65
2022/05/02 05:05:34;;;;;;;;;35.33;31.67;;;;;12.62;50.34;101375.06;4999482;28;45386;-66
2022/05/02 05:07:59;;;;;;;;;36.00;30.33;;;;;12.43;50.36;101341.25;4999790;28;45339;-65
2022/05/02 05:10:25;;;;;;;;;38.00;33.67;;;;;12.64;50.54;101367.75;5002463;28;46542;-65
2022/05/02 05:13:13;;;;;;;;;36.00;32.67;;;;;12.64;49.94;101360.59;5000619;28;46683;-66
2022/05/02 05:19:11;;;;;;;;;34.00;30.00;;;;;12.52;50.92;101366.22;5019025;28;45463;-66
2022/05/02 05:21:55;;;;;;;;;43.25;33.50;;;;;12.60;50.98;101366.34;5018083;28;45549;-66
2022/05/02 05:24:53;;;;;;;;;27.00;24.67;;;;;12.69;50.62;101365.50;5018700;28;45720;-67
2022/05/02 05:27:21;;;;;;;;;37.33;32.33;;;;;12.75;50.25;101372.94;4998899;28;45454;-67
2022/05/02 05:30:00;;;;;;;;;40.00;33.00;;;;;12.64;50.32;101352.59;4999172;28;45196;-68
2022/05/02 05:32:44;;;;;;;;;34.00;31.00;;;;;12.86;50.23;101367.44;4999846;28;45559;-67
2022/05/02 05:35:11;;;;;;;;;44.67;36.33;;;;;12.89;50.06;101375.16;5004707;28;46085;-66
2022/05/02 05:38:05;;;;;;;;;41.67;33.33;;;;;13.04;49.40;101373.72;5008862;28;45563;-65
2022/05/02 05:40:44;;;;;;;;;35.00;31.67;;;;;12.99;49.46;101372.44;4985986;28;45202;-65
2022/05/02 05:43:31;;;;;;;;;40.00;33.67;;;;;12.98;49.91;101373.44;4984179;28;45611;-65
2022/05/02 05:46:08;;;;;;;;;43.00;35.00;;;;;13.08;49.61;101369.78;4998856;28;45592;-67
2022/05/02 05:48:43;;;;;;;;;45.75;37.25;;;;;13.14;49.56;101368.34;4999279;28;45341;-65
2022/05/02 05:51:11;;;;;;;;;39.67;34.67;;;;;12.94;48.95;101335.53;4981527;28;45320;-67
2022/05/02 05:54:10;;;;;;;;;38.75;33.00;;;;;13.27;49.30;101365.41;4999170;28;45488;-65
2022/05/02 05:57:00;;;;;;;;;38.75;33.75;;;;;13.25;48.95;101367.38;4999034;28;45500;-67
2022/05/02 05:59:34;;;;;;;;;42.00;33.33;;;;;13.38;48.60;101368.69;5002127;28;45323;-66
2022/05/02 06:02:19;;;;;;;;;41.00;34.67;;;;;13.55;48.08;101367.09;5017725;28;45233;-66
2022/05/02 06:04:49;;;;;;;;;35.33;30.33;;;;;13.47;48.16;101350.97;5018849;28;45978;-66
2022/05/02 06:07:18;;;;;;;;;41.25;35.00;;;;;13.57;48.06;101361.59;5016737;28;46400;-66
2022/05/02 06:09:43;;;;;;;;;31.75;30.75;;;;;13.58;47.97;101368.63;5005449;28;45427;-66
2022/05/02 06:12:12;;;;;;;;;35.50;31.25;;;;;13.68;48.21;101372.94;5007257;28;45263;-67
2022/05/02 06:20:11;;;;;;;;;44.50;35.00;;;;;13.79;47.56;101381.72;5018542;28;45456;-69
2022/05/02 06:22:39;;;;;;;;;41.67;35.00;;;;;13.73;47.58;101355.59;5018405;28;45468;-67
2022/05/02 06:25:06;;;;;;;;;39.00;32.67;;;;;13.99;47.18;101377.94;5018143;28;45231;-67
2022/05/02 06:27:34;;;;;;;;;44.00;38.67;;;;;13.95;47.54;101381.91;5018092;28;46817;-68
2022/05/02 06:30:01;;;;;;;;;44.50;37.50;;;;;14.02;46.44;101383.00;4998377;28;45356;-68
2022/05/02 06:32:29;;;;;;;;;42.00;37.00;;;;;14.02;46.88;101388.38;4998478;28;45372;-67
2022/05/02 06:34:58;;;;;;;;;47.33;35.67;;;;;14.04;46.81;101358.81;5013829;28;45628;-67
2022/05/02 06:38:12;;;;;;;;;40.67;35.00;;;;;14.30;46.37;101381.13;4999947;28;47613;-67
2022/05/02 06:40:56;;;;;;;;;42.33;35.33;;;;;14.53;46.11;101381.53;4986836;28;45520;-65
2022/05/02 06:43:47;;;;;;;;;44.33;37.33;;;;;14.75;45.49;101381.03;5017898;28;45418;-67
2022/05/02 06:46:25;;;;;;;;;48.33;39.33;;;;;14.80;45.10;101378.72;4996725;28;45308;-64
2022/05/02 06:49:00;;;;;;;;;52.00;44.33;;;;;14.70;45.08;101372.63;4996399;28;46723;-68
2022/05/02 06:51:31;;;;;;;;;40.00;36.00;;;;;14.66;45.94;101383.81;4980250;28;45504;-72
2022/05/02 06:54:34;;;;;;;;;44.25;37.25;;;;;14.75;45.64;101375.69;5002109;28;45183;-65
2022/05/02 06:57:09;;;;;;;;;50.00;39.00;;;;;14.37;45.28;101301.94;5011506;28;45513;-67
2022/05/02 06:59:46;;;;;;;;;50.33;42.67;;;;;15.00;45.22;101379.38;5032337;28;47851;-68
2022/05/02 07:02:36;;;;;;;;;47.67;39.67;;;;;15.18;44.76;101384.66;5016192;28;45515;-71
2022/05/02 07:05:24;;;;;;;;;51.00;42.33;;;;;15.10;45.08;101382.78;5017317;28;45518;-68
2022/05/02 07:08:01;;;;;;;;;47.25;41.75;;;;;15.15;44.76;101387.66;5017691;28;45497;-67
2022/05/02 07:10:37;;;;;;;;;47.33;38.67;;;;;15.36;44.77;101379.25;5017410;28;46478;-67
2022/05/02 07:13:16;;;;;;;;;49.50;41.25;;;;;15.49;44.05;101391.22;5017699;28;45317;-66
2022/05/02 07:15:50;;;;;;;;;46.00;36.00;;;;;15.42;44.24;101352.69;4999650;28;45587;-67
2022/05/02 07:18:29;;;;;;;;;42.00;37.33;;;;;15.70;43.50;101382.78;5017117;28;45529;-69
2022/05/02 07:21:07;;;;;;;;;51.67;41.00;;;;;15.81;43.49;101378.97;4999347;28;47740;-68
2022/05/02 07:23:51;;;;;;;;;40.00;34.67;;;;;15.24;43.04;101287.63;5017207;28;45214;-67
2022/05/02 07:26:20;;;;;;;;;47.75;36.50;;;;;15.83;42.96;101366.25;5017390;28;45520;-68
2022/05/02 07:28:48;;;;;;;;;46.75;37.25;;;;;15.99;42.83;101376.16;5017339;28;45590;-69
2022/05/02 07:31:17;;;;;;;;;46.67;37.67;;;;;16.13;42.41;101383.59;5017281;28;47693;-66
2022/05/02 07:33:45;;;;;;;;;47.67;39.00;;;;;16.20;42.18;101389.13;5015680;28;45343;-67
2022/05/02 07:36:15;;;;;;;;;43.67;37.33;;;;;16.18;42.13;101393.81;5015776;28;45294;-67
2022/05/02 07:38:44;;;;;;;;;46.75;37.25;;;;;15.71;43.16;101351.47;5017546;28;45559;-66
2022/05/02 07:41:25;;;;;;;;;42.00;37.00;;;;;16.03;42.36;101383.75;4999220;28;47892;-68
2022/05/02 07:44:02;;;;;;;;;43.00;37.00;;;;;16.21;41.83;101380.06;5017083;28;45382;-68
2022/05/02 07:46:38;;;;;;;;;45.67;38.67;;;;;16.47;41.56;101388.00;5016402;28;45611;-68
2022/05/02 07:49:07;;;;;;;;;42.67;37.00;;;;;16.59;41.34;101379.44;5017713;28;45559;-68
2022/05/02 07:51:33;;;;;;;;;46.00;38.67;;;;;16.97;40.94;101380.63;5016037;28;47494;-68
2022/05/02 07:54:00;;;;;;;;;47.25;39.00;;;;;17.41;40.01;101384.72;5017408;28;45389;-67
2022/05/02 07:56:31;;;;;;;;;42.25;36.00;;;;;17.56;38.87;101383.00;4999608;28;45369;-68
2022/05/02 07:58:58;;;;;;;;;45.00;36.33;;;;;17.12;39.62;101262.56;4999498;28;45568;-68
2022/05/02 08:01:25;;;;;;;;;48.00;38.00;;;;;17.20;38.75;101286.69;4999184;28;46492;-66
2022/05/02 08:03:53;;;;;;;;;46.33;40.00;;;;;18.10;38.69;101385.78;5016868;28;45288;-67
2022/05/02 08:06:25;;;;;;;;;49.33;39.33;;;;;18.50;37.99;101382.81;5016316;28;45484;-67
2022/05/02 08:09:22;;;;;;;;;43.33;39.33;;;;;18.86;37.14;101393.00;4999430;28;45631;-67
2022/05/02 08:12:11;;;;;;;;;49.33;41.33;;;;;19.30;36.42;101389.50;5016693;28;45805;-69
2022/05/02 08:15:08;;;;;;;;;39.67;35.33;;;;;19.55;36.08;101390.09;4998749;28;45904;-67
2022/05/02 08:17:43;;;;;;;;;50.33;41.00;;;;;19.83;35.05;101391.09;4995058;28;45554;-68
2022/05/02 08:20:31;;;;;;;;;45.00;38.00;;;;;19.88;34.69;101387.81;5016972;28;45400;-69
2022/05/02 08:29:16;;;;;;;;;45.33;38.00;;;;;20.81;33.29;101379.63;5016105;28;45298;-67
2022/05/02 08:31:51;;;;;;;;;47.33;38.33;;;;;21.03;33.00;101368.81;5016679;28;45239;-65
2022/05/02 08:34:38;;;;;;;;;47.33;39.33;;;;;21.25;32.73;101375.84;5016223;28;46206;-68
2022/05/02 08:37:30;;;;;;;;;49.67;38.00;;;;;21.46;32.05;101370.34;5016466;28;45382;-68
2022/05/02 08:40:17;;;;;;;;;46.00;38.33;;;;;21.45;32.32;101349.75;5016546;28;45242;-69
2022/05/02 08:43:01;;;;;;;;;54.33;44.00;;;;;21.61;31.54;101364.78;4998614;28;45186;-67
2022/05/02 08:45:41;;;;;;;;;50.67;40.67;;;;;21.07;32.48;101370.09;5016249;28;45479;-68
2022/05/02 08:48:37;;;;;;;;;46.33;40.00;;;;;20.77;33.07;101375.66;5015808;28;45223;-67
2022/05/02 08:51:35;;;;;;;;;48.33;39.33;;;;;20.64;33.30;101375.56;5016536;28;45423;-68
2022/05/02 08:54:38;;;;;;;;;44.33;37.33;;;;;20.81;33.20;101374.22;4998564;28;45581;-68
2022/05/02 08:57:06;;;;;;;;;49.00;39.75;;;;;20.81;33.40;101374.22;4998101;28;48874;-67
2022/05/02 08:59:54;;;;;;;;;39.75;32.75;;;;;20.72;33.57;101375.41;4998086;28;45405;-67
2022/05/02 09:03:12;;;;;;;;;50.00;42.75;;;;;20.79;33.14;101362.78;4986471;28;45651;-66
2022/05/02 09:06:03;;;;;;;;;48.33;40.33;;;;;20.88;33.17;101367.03;5011028;28;45596;-68
2022/05/02 09:08:39;;;;;;;;;44.33;37.00;;;;;20.97;33.31;101373.13;5015850;28;45914;-68
2022/05/02 09:11:41;;;;;;;;;51.00;42.33;;;;;20.88;32.92;101377.84;5016134;28;45194;-70
2022/05/02 09:14:36;;;;;;;;;50.67;42.00;;;;;21.05;33.32;101369.44;5015415;28;45374;-67
2022/05/02 09:17:23;;;;;;;;;46.33;39.00;;;;;21.13;32.86;101367.41;4996527;28;45527;-69
2022/05/02 09:20:03;;;;;;;;;45.33;39.00;;;;;21.13;32.64;101355.75;4995920;28;46636;-71
2022/05/02 09:22:47;;;;;;;;;51.33;41.67;;;;;21.54;32.38;101369.34;4995774;28;45548;-68
2022/05/02 09:25:32;;;;;;;;;51.00;42.67;;;;;21.44;31.85;101321.03;4996035;28;45575;-67
2022/05/02 09:28:17;;;;;;;;;46.00;36.67;;;;;22.18;31.45;101366.25;4994555;28;45445;-68
2022/05/02 09:31:14;;;;;;;;;44.33;38.67;;;;;22.40;31.00;101353.38;4994158;28;46390;-68
2022/05/02 09:33:49;;;;;;;;;51.00;42.25;;;;;22.62;30.90;101360.25;4994231;28;45769;-67
2022/05/02 09:36:40;;;;;;;;;50.75;41.50;;;;;23.12;29.85;101327.31;4995997;28;45292;-72
2022/05/02 09:39:15;;;;;;;;;45.00;37.67;;;;;23.91;28.55;101348.75;4978686;28;45624;-68
2022/05/02 09:42:09;;;;;;;;;50.00;40.33;;;;;24.37;27.94;101348.47;4996318;28;45998;-69
2022/05/02 09:49:33;;;;;;;;;41.67;36.00;;;;;24.96;27.27;101349.84;4999100;28;45542;-68
2022/05/02 09:51:31;;;;;;;;;46.33;36.00;;;;;25.54;26.54;101343.19;4999078;28;45564;-69
2022/05/02 09:54:14;;;;;;;;;46.67;37.00;;;;;26.19;25.70;101348.81;4981282;28;48230;-69
2022/05/02 09:57:01;;;;;;;;;44.00;37.33;;;;;26.57;25.16;101315.72;4998978;28;45345;-68
2022/05/02 09:59:30;;;;;;;;;47.67;36.67;;;;;26.61;25.56;101336.00;4999018;28;45572;-68
2022/05/02 10:02:05;;;;;;;;;39.33;34.33;;;;;26.34;25.06;101325.53;4998786;28;45445;-69
2022/05/02 10:05:00;;;;;;;;;45.33;38.00;;;;;25.56;26.14;101311.94;4981062;28;47573;-69
2022/05/02 10:07:25;;;;;;;;;40.67;36.33;;;;;25.09;27.46;101333.44;4980245;28;45448;-68
2022/05/02 10:10:07;;;;;;;;;41.00;34.67;;;;;24.63;27.35;101311.25;4998629;28;45442;-66
2022/05/02 10:12:51;;;;;;;;;49.33;39.33;;;;;24.21;28.23;101340.81;4999063;28;45529;-67
2022/05/02 10:15:52;;;;;;;;;38.67;33.33;;;;;23.62;29.33;101341.97;5014645;28;45607;-68
2022/05/02 10:18:58;;;;;;;;;35.00;31.67;;;;;22.56;30.91;101331.28;5018139;28;45286;-69
2022/05/02 10:22:02;;;;;;;;;47.67;38.33;;;;;22.36;31.32;101327.75;5017875;28;45363;-68
2022/05/02 10:25:00;;;;;;;;;39.67;36.00;;;;;21.51;32.59;101311.06;5018695;28;45457;-67
2022/05/02 10:28:04;;;;;;;;;42.00;35.00;;;;;21.69;32.53;101334.03;5018227;28;47012;-68
2022/05/02 10:30:42;;;;;;;;;33.67;30.33;;;;;21.14;32.69;101247.41;5018203;28;45547;-70
2022/05/02 10:33:13;;;;;;;;;38.33;34.00;;;;;20.25;33.27;101151.91;5018228;28;45490;-68
2022/05/02 10:35:45;;;;;;;;;45.33;37.33;;;;;20.78;33.40;101269.25;5000836;28;45523;-70
2022/05/02 10:38:17;;;;;;;;;34.67;32.00;;;;;20.82;33.96;101300.25;5016424;28;46825;-68
2022/05/02 10:40:45;;;;;;;;;38.00;34.33;;;;;21.11;33.66;101322.69;5000339;28;45453;-68
2022/05/02 10:43:16;;;;;;;;;36.00;34.00;;;;;21.09;33.83;101316.63;5018202;28;45476;-66
2022/05/02 10:45:42;;;;;;;;;29.33;28.67;;;;;21.07;33.75;101316.00;5018154;28;45493;-68
2022/05/02 10:48:18;;;;;;;;;36.00;33.00;;;;;20.31;34.06;101195.13;4999882;28;47631;-68
2022/05/02 10:51:02;;;;;;;;;38.00;35.00;;;;;20.84;34.18;101308.16;5018157;28;45402;-69
2022/05/02 10:53:46;;;;;;;;;35.00;32.67;;;;;20.93;34.01;101310.50;4999372;28;45302;-69
2022/05/02 10:56:25;;;;;;;;;34.00;33.00;;;;;20.88;34.52;101310.28;5000623;28;45326;-69
2022/05/02 10:58:53;;;;;;;;;39.67;34.00;;;;;20.98;34.35;101299.09;5017578;28;46825;-69
2022/05/02 11:01:22;;;;;;;;;31.00;29.67;;;;;21.04;34.14;101302.91;4999852;28;46197;-69
2022/05/02 11:04:14;;;;;;;;;34.33;32.67;;;;;21.02;34.10;101305.75;5018116;28;45309;-67
2022/05/02 11:07:01;;;;;;;;;36.67;32.67;;;;;20.81;34.85;101309.38;5018014;28;45503;-68
2022/05/02 11:09:52;;;;;;;;;37.00;33.67;;;;;20.44;35.21;101313.28;5017560;28;46720;-68
2022/05/02 11:12:22;;;;;;;;;43.00;33.33;;;;;19.84;35.49;101227.34;5017967;28;45462;-68
2022/05/02 11:15:06;;;;;;;;;31.00;28.67;;;;;20.19;35.76;101304.69;5017914;28;45299;-67
2022/05/02 11:17:52;;;;;;;;;36.67;32.33;;;;;19.90;36.80;101307.50;5017751;28;45705;-68
2022/05/02 11:20:43;;;;;;;;;34.00;32.67;;;;;18.77;36.23;101079.72;5017580;28;45890;-68
2022/05/02 11:23:18;;;;;;;;;32.00;29.00;;;;;20.19;35.98;101298.44;5015629;28;45344;-69
2022/05/02 11:25:55;;;;;;;;;34.33;31.33;;;;;20.08;36.47;101286.31;5017667;28;45323;-69
2022/05/02 11:28:39;;;;;;;;;31.33;29.00;;;;;20.28;36.03;101286.50;5017712;28;45329;-69
2022/05/02 11:31:23;;;;;;;;;28.33;28.33;;;;;20.10;36.37;101288.81;5018083;28;45627;-69
2022/05/02 11:33:55;;;;;;;;;36.00;33.67;;;;;19.96;36.39;101293.25;5018255;28;45342;-69
2022/05/02 11:36:26;;;;;;;;;35.33;33.00;;;;;20.10;36.03;101286.13;5000237;28;45287;-67
2022/05/02 11:38:56;;;;;;;;;23.67;21.00;;;;;19.97;36.10;101284.13;5017381;28;45294;-68
2022/05/02 11:41:23;;;;;;;;;32.33;29.67;;;;;19.74;36.49;101284.28;5017565;28;46680;-68
2022/05/02 11:44:16;;;;;;;;;31.33;30.33;;;;;19.81;36.39;101303.25;4999295;28;45481;-70
2022/05/02 11:47:10;;;;;;;;;27.67;26.00;;;;;20.03;36.19;101283.38;4998978;28;45273;-68
2022/05/02 11:49:57;;;;;;;;;29.67;29.67;;;;;19.69;35.97;101193.16;5017053;28;45521;-69
2022/05/02 11:52:31;;;;;;;;;35.67;32.00;;;;;20.28;35.44;101259.50;5017017;28;46310;-71
2022/05/02 11:54:57;;;;;;;;;35.33;30.00;;;;;20.17;35.79;101222.22;5016816;28;45495;-67
2022/05/02 11:57:43;;;;;;;;;35.33;34.00;;;;;20.02;36.38;101250.16;5016811;28;45382;-69
2022/05/02 12:00:14;;;;;;;;;36.00;32.67;;;;;20.08;36.39;101280.09;5016907;28;45338;-67
2022/05/02 12:02:56;;;;;;;;;38.67;32.67;;;;;20.16;36.14;101271.84;5016889;28;45684;-68
2022/05/02 12:05:24;;;;;;;;;29.33;29.00;;;;;20.20;36.26;101255.06;5015760;28;45531;-67
2022/05/02 12:07:58;;;;;;;;;25.33;24.33;;;;;20.34;35.91;101270.34;5016826;28;45302;-68